sensor_id;sensor_type;location;lat;lon;timestamp;P1;durP1;ratioP1;P2;durP2;ratioP2
60999;SDS011;46879;45.658;11.814;2023-03-12T00:04:35;11.32;;;3.70;;
60999;SDS011;46879;45.658;11.814;2023-03-12T00:09:36;5.03;;;3.38;;
60999;SDS011;46879;45.658;11.814;2023-03-12T00:14:38;6.63;;;3.13;;
60999;SDS011;46879;45.658;11.814;2023-03-12T00:19:38;9.40;;;3.25;;
60999;SDS011;46879;45.658;11.814;2023-03-12T00:24:39;10.20;;;3.47;;
60999;SDS011;46879;45.658;11.814;2023-03-12T00:29:39;5.88;;;3.50;;
60999;SDS011;46879;45.658;11.814;2023-03-12T00:34:40;6.70;;;2.90;;
60999;SDS011;46879;45.658;11.814;2023-03-12T00:39:41;8.77;;;3.50;;
60999;SDS011;46879;45.658;11.814;2023-03-12T00:44:41;7.03;;;3.63;;
60999;SDS011;46879;45.658;11.814;2023-03-12T00:49:43;6.13;;;3.28;;
60999;SDS011;46879;45.658;11.814;2023-03-12T00:54:43;6.00;;;3.33;;
60999;SDS011;46879;45.658;11.814;2023-03-12T00:59:44;8.35;;;3.13;;
60999;SDS011;46879;45.658;11.814;2023-03-12T01:04:45;6.63;;;2.90;;
60999;SDS011;46879;45.658;11.814;2023-03-12T01:09:45;10.68;;;2.90;;
60999;SDS011;46879;45.658;11.814;2023-03-12T01:14:46;8.82;;;3.33;;
60999;SDS011;46879;45.658;11.814;2023-03-12T01:19:46;6.63;;;3.13;;
60999;SDS011;46879;45.658;11.814;2023-03-12T01:24:47;10.38;;;2.72;;
60999;SDS011;46879;45.658;11.814;2023-03-12T01:29:48;8.50;;;2.95;;
60999;SDS011;46879;45.658;11.814;2023-03-12T01:34:49;4.90;;;2.92;;
60999;SDS011;46879;45.658;11.814;2023-03-12T01:39:49;4.90;;;2.67;;
60999;SDS011;46879;45.658;11.814;2023-03-12T01:45:00;5.88;;;3.08;;
60999;SDS011;46879;45.658;11.814;2023-03-12T01:50:03;4.43;;;2.33;;
60999;SDS011;46879;45.658;11.814;2023-03-12T01:55:06;3.92;;;2.45;;
60999;SDS011;46879;45.658;11.814;2023-03-12T02:00:24;6.80;;;3.33;;
60999;SDS011;46879;45.658;11.814;2023-03-12T02:11:01;5.13;;;2.28;;
60999;SDS011;46879;45.658;11.814;2023-03-12T02:16:02;3.03;;;2.50;;
60999;SDS011;46879;45.658;11.814;2023-03-12T02:26:19;3.08;;;2.17;;
60999;SDS011;46879;45.658;11.814;2023-03-12T02:31:25;4.28;;;2.30;;
60999;SDS011;46879;45.658;11.814;2023-03-12T02:36:34;3.67;;;2.55;;
60999;SDS011;46879;45.658;11.814;2023-03-12T02:41:35;3.35;;;2.55;;
60999;SDS011;46879;45.658;11.814;2023-03-12T02:46:48;4.97;;;2.53;;
60999;SDS011;46879;45.658;11.814;2023-03-12T02:51:52;3.83;;;2.63;;
60999;SDS011;46879;45.658;11.814;2023-03-12T02:56:53;3.53;;;2.38;;
60999;SDS011;46879;45.658;11.814;2023-03-12T03:01:55;4.03;;;2.45;;
60999;SDS011;46879;45.658;11.814;2023-03-12T03:06:58;6.10;;;2.42;;
60999;SDS011;46879;45.658;11.814;2023-03-12T03:11:59;2.42;;;2.20;;
60999;SDS011;46879;45.658;11.814;2023-03-12T03:17:00;2.85;;;1.80;;
60999;SDS011;46879;45.658;11.814;2023-03-12T03:22:00;3.45;;;2.08;;
60999;SDS011;46879;45.658;11.814;2023-03-12T03:27:01;2.78;;;2.22;;
60999;SDS011;46879;45.658;11.814;2023-03-12T03:32:02;4.15;;;2.20;;
60999;SDS011;46879;45.658;11.814;2023-03-12T03:37:02;2.40;;;2.20;;
60999;SDS011;46879;45.658;11.814;2023-03-12T03:42:04;2.65;;;2.00;;
60999;SDS011;46879;45.658;11.814;2023-03-12T03:47:04;3.45;;;2.30;;
60999;SDS011;46879;45.658;11.814;2023-03-12T03:52:05;2.83;;;2.00;;
60999;SDS011;46879;45.658;11.814;2023-03-12T03:57:06;2.55;;;2.00;;
60999;SDS011;46879;45.658;11.814;2023-03-12T04:02:06;2.25;;;1.80;;
60999;SDS011;46879;45.658;11.814;2023-03-12T04:07:07;2.83;;;2.22;;
60999;SDS011;46879;45.658;11.814;2023-03-12T04:12:07;2.58;;;1.83;;
60999;SDS011;46879;45.658;11.814;2023-03-12T04:17:08;2.45;;;2.05;;
60999;SDS011;46879;45.658;11.814;2023-03-12T04:22:09;2.55;;;2.33;;
60999;SDS011;46879;45.658;11.814;2023-03-12T04:27:10;2.13;;;1.90;;
60999;SDS011;46879;45.658;11.814;2023-03-12T04:32:10;2.53;;;2.00;;
60999;SDS011;46879;45.658;11.814;2023-03-12T04:37:11;2.17;;;1.60;;
60999;SDS011;46879;45.658;11.814;2023-03-12T04:42:14;2.15;;;1.88;;
60999;SDS011;46879;45.658;11.814;2023-03-12T04:47:15;1.90;;;1.70;;
60999;SDS011;46879;45.658;11.814;2023-03-12T04:52:15;2.97;;;1.90;;
60999;SDS011;46879;45.658;11.814;2023-03-12T04:57:16;3.13;;;1.90;;
60999;SDS011;46879;45.658;11.814;2023-03-12T05:02:17;2.72;;;1.77;;
60999;SDS011;46879;45.658;11.814;2023-03-12T05:07:18;1.60;;;1.50;;
60999;SDS011;46879;45.658;11.814;2023-03-12T05:12:18;1.70;;;1.60;;
60999;SDS011;46879;45.658;11.814;2023-03-12T05:17:19;2.35;;;1.65;;
60999;SDS011;46879;45.658;11.814;2023-03-12T05:22:20;2.03;;;1.58;;
60999;SDS011;46879;45.658;11.814;2023-03-12T05:27:21;2.97;;;1.70;;
60999;SDS011;46879;45.658;11.814;2023-03-12T05:32:21;3.50;;;1.73;;
60999;SDS011;46879;45.658;11.814;2023-03-12T05:37:22;4.20;;;1.75;;
60999;SDS011;46879;45.658;11.814;2023-03-12T05:42:23;2.08;;;1.70;;
60999;SDS011;46879;45.658;11.814;2023-03-12T05:47:24;2.63;;;1.92;;
60999;SDS011;46879;45.658;11.814;2023-03-12T05:52:24;2.05;;;1.80;;
60999;SDS011;46879;45.658;11.814;2023-03-12T05:57:25;1.98;;;1.67;;
60999;SDS011;46879;45.658;11.814;2023-03-12T06:02:25;1.90;;;1.70;;
60999;SDS011;46879;45.658;11.814;2023-03-12T06:07:26;1.60;;;1.50;;
60999;SDS011;46879;45.658;11.814;2023-03-12T06:12:26;5.85;;;1.70;;
60999;SDS011;46879;45.658;11.814;2023-03-12T06:17:28;1.73;;;1.63;;
60999;SDS011;46879;45.658;11.814;2023-03-12T06:22:30;1.60;;;1.50;;
60999;SDS011;46879;45.658;11.814;2023-03-12T06:27:31;2.20;;;2.00;;
60999;SDS011;46879;45.658;11.814;2023-03-12T06:32:32;1.80;;;1.60;;
60999;SDS011;46879;45.658;11.814;2023-03-12T06:37:32;1.80;;;1.60;;
60999;SDS011;46879;45.658;11.814;2023-03-12T06:42:33;2.58;;;1.80;;
60999;SDS011;46879;45.658;11.814;2023-03-12T06:47:34;2.13;;;1.63;;
60999;SDS011;46879;45.658;11.814;2023-03-12T06:52:34;2.40;;;1.98;;
60999;SDS011;46879;45.658;11.814;2023-03-12T06:57:35;3.10;;;1.88;;
60999;SDS011;46879;45.658;11.814;2023-03-12T07:02:35;4.40;;;1.77;;
60999;SDS011;46879;45.658;11.814;2023-03-12T07:07:36;1.77;;;1.52;;
60999;SDS011;46879;45.658;11.814;2023-03-12T07:12:37;2.15;;;1.67;;
60999;SDS011;46879;45.658;11.814;2023-03-12T07:17:38;4.13;;;1.80;;
60999;SDS011;46879;45.658;11.814;2023-03-12T07:22:39;1.88;;;1.60;;
60999;SDS011;46879;45.658;11.814;2023-03-12T07:27:39;2.97;;;1.80;;
60999;SDS011;46879;45.658;11.814;2023-03-12T07:32:40;2.45;;;1.75;;
60999;SDS011;46879;45.658;11.814;2023-03-12T07:37:41;3.88;;;1.83;;
60999;SDS011;46879;45.658;11.814;2023-03-12T07:42:42;4.20;;;1.60;;
60999;SDS011;46879;45.658;11.814;2023-03-12T07:47:42;8.00;;;1.83;;
60999;SDS011;46879;45.658;11.814;2023-03-12T07:52:43;64.68;;;3.88;;
60999;SDS011;46879;45.658;11.814;2023-03-12T07:57:45;7.20;;;2.13;;
60999;SDS011;46879;45.658;11.814;2023-03-12T08:02:45;3.00;;;2.10;;
60999;SDS011;46879;45.658;11.814;2023-03-12T08:07:46;7.43;;;2.72;;
60999;SDS011;46879;45.658;11.814;2023-03-12T08:12:47;7.97;;;2.15;;
60999;SDS011;46879;45.658;11.814;2023-03-12T08:17:48;3.03;;;1.98;;
60999;SDS011;46879;45.658;11.814;2023-03-12T08:22:48;4.93;;;2.10;;
60999;SDS011;46879;45.658;11.814;2023-03-12T08:27:49;4.60;;;2.25;;
60999;SDS011;46879;45.658;11.814;2023-03-12T08:32:49;5.43;;;2.20;;
60999;SDS011;46879;45.658;11.814;2023-03-12T08:37:50;4.43;;;2.20;;
60999;SDS011;46879;45.658;11.814;2023-03-12T08:42:50;4.43;;;1.90;;
60999;SDS011;46879;45.658;11.814;2023-03-12T08:47:51;8.90;;;1.95;;
60999;SDS011;46879;45.658;11.814;2023-03-12T08:52:52;2.65;;;1.60;;
60999;SDS011;46879;45.658;11.814;2023-03-12T08:57:53;3.03;;;1.70;;
60999;SDS011;46879;45.658;11.814;2023-03-12T09:02:54;4.72;;;1.70;;
60999;SDS011;46879;45.658;11.814;2023-03-12T09:07:57;4.35;;;1.92;;
60999;SDS011;46879;45.658;11.814;2023-03-12T09:12:57;2.45;;;1.75;;
60999;SDS011;46879;45.658;11.814;2023-03-12T09:17:58;3.08;;;1.70;;
60999;SDS011;46879;45.658;11.814;2023-03-12T09:22:59;5.30;;;2.00;;
60999;SDS011;46879;45.658;11.814;2023-03-12T09:27:59;2.88;;;1.63;;
60999;SDS011;46879;45.658;11.814;2023-03-12T09:33:01;5.18;;;1.80;;
60999;SDS011;46879;45.658;11.814;2023-03-12T09:38:02;4.53;;;1.55;;
60999;SDS011;46879;45.658;11.814;2023-03-12T09:43:04;2.85;;;1.63;;
60999;SDS011;46879;45.658;11.814;2023-03-12T09:48:12;3.67;;;1.70;;
60999;SDS011;46879;45.658;11.814;2023-03-12T09:53:36;3.20;;;1.65;;
60999;SDS011;46879;45.658;11.814;2023-03-12T09:58:47;2.35;;;1.75;;
60999;SDS011;46879;45.658;11.814;2023-03-12T10:25:19;2.25;;;1.60;;
60999;SDS011;46879;45.658;11.814;2023-03-12T10:30:34;2.28;;;1.70;;
60999;SDS011;46879;45.658;11.814;2023-03-12T10:35:35;2.40;;;1.65;;
60999;SDS011;46879;45.658;11.814;2023-03-12T10:40:39;2.60;;;1.83;;
60999;SDS011;46879;45.658;11.814;2023-03-12T10:45:49;2.55;;;1.80;;
60999;SDS011;46879;45.658;11.814;2023-03-12T10:51:02;2.10;;;1.70;;
60999;SDS011;46879;45.658;11.814;2023-03-12T10:56:10;2.58;;;1.70;;
60999;SDS011;46879;45.658;11.814;2023-03-12T11:06:24;1.98;;;1.65;;
60999;SDS011;46879;45.658;11.814;2023-03-12T11:11:33;2.05;;;1.50;;
60999;SDS011;46879;45.658;11.814;2023-03-12T11:16:35;2.67;;;1.83;;
60999;SDS011;46879;45.658;11.814;2023-03-12T11:21:36;2.55;;;2.00;;
60999;SDS011;46879;45.658;11.814;2023-03-12T11:27:16;2.42;;;1.60;;
60999;SDS011;46879;45.658;11.814;2023-03-12T11:48:20;1.80;;;1.70;;
60999;SDS011;46879;45.658;11.814;2023-03-12T11:58:58;2.28;;;1.80;;
60999;SDS011;46879;45.658;11.814;2023-03-12T12:04:17;3.20;;;1.70;;
60999;SDS011;46879;45.658;11.814;2023-03-12T12:10:02;3.35;;;1.80;;
60999;SDS011;46879;45.658;11.814;2023-03-12T12:21:01;3.00;;;1.70;;
60999;SDS011;46879;45.658;11.814;2023-03-12T12:26:23;2.40;;;1.80;;
60999;SDS011;46879;45.658;11.814;2023-03-12T13:05:25;4.93;;;2.47;;
60999;SDS011;46879;45.658;11.814;2023-03-12T13:15:40;6.13;;;2.03;;
60999;SDS011;46879;45.658;11.814;2023-03-12T13:26:07;5.38;;;2.58;;
60999;SDS011;46879;45.658;11.814;2023-03-12T13:36:27;9.55;;;2.10;;
60999;SDS011;46879;45.658;11.814;2023-03-12T13:41:29;4.57;;;2.15;;
60999;SDS011;46879;45.658;11.814;2023-03-12T13:52:09;6.45;;;2.00;;
60999;SDS011;46879;45.658;11.814;2023-03-12T13:57:28;6.00;;;2.20;;
60999;SDS011;46879;45.658;11.814;2023-03-12T14:02:41;7.55;;;2.10;;
60999;SDS011;46879;45.658;11.814;2023-03-12T14:19:16;5.28;;;2.20;;
60999;SDS011;46879;45.658;11.814;2023-03-12T14:24:23;9.43;;;2.45;;
60999;SDS011;46879;45.658;11.814;2023-03-12T14:29:30;8.48;;;2.58;;
60999;SDS011;46879;45.658;11.814;2023-03-12T14:34:46;6.75;;;2.58;;
60999;SDS011;46879;45.658;11.814;2023-03-12T14:39:57;20.05;;;2.60;;
60999;SDS011;46879;45.658;11.814;2023-03-12T14:50:16;6.95;;;2.40;;
60999;SDS011;46879;45.658;11.814;2023-03-12T14:55:39;6.85;;;2.45;;
60999;SDS011;46879;45.658;11.814;2023-03-12T15:00:40;8.82;;;2.40;;
60999;SDS011;46879;45.658;11.814;2023-03-12T15:05:45;6.70;;;2.22;;
60999;SDS011;46879;45.658;11.814;2023-03-12T15:10:49;4.70;;;2.20;;
60999;SDS011;46879;45.658;11.814;2023-03-12T15:15:53;7.93;;;1.98;;
60999;SDS011;46879;45.658;11.814;2023-03-12T15:20:55;2.67;;;2.00;;
60999;SDS011;46879;45.658;11.814;2023-03-12T15:31:47;6.72;;;2.28;;
60999;SDS011;46879;45.658;11.814;2023-03-12T15:36:48;4.20;;;2.28;;
60999;SDS011;46879;45.658;11.814;2023-03-12T15:41:50;3.78;;;2.15;;
60999;SDS011;46879;45.658;11.814;2023-03-12T15:47:10;4.10;;;1.70;;
60999;SDS011;46879;45.658;11.814;2023-03-12T15:57:24;3.85;;;1.80;;
60999;SDS011;46879;45.658;11.814;2023-03-12T16:02:35;3.55;;;2.10;;
60999;SDS011;46879;45.658;11.814;2023-03-12T16:07:45;7.85;;;2.53;;
60999;SDS011;46879;45.658;11.814;2023-03-12T16:12:46;6.50;;;2.10;;
60999;SDS011;46879;45.658;11.814;2023-03-12T16:17:49;6.82;;;2.40;;
60999;SDS011;46879;45.658;11.814;2023-03-12T16:22:50;4.80;;;1.90;;
60999;SDS011;46879;45.658;11.814;2023-03-12T16:27:51;3.80;;;1.98;;
60999;SDS011;46879;45.658;11.814;2023-03-12T16:32:57;3.05;;;2.05;;
60999;SDS011;46879;45.658;11.814;2023-03-12T16:37:59;6.03;;;2.10;;
60999;SDS011;46879;45.658;11.814;2023-03-12T16:43:00;4.72;;;2.30;;
60999;SDS011;46879;45.658;11.814;2023-03-12T16:48:04;2.05;;;1.60;;
60999;SDS011;46879;45.658;11.814;2023-03-12T16:53:05;3.97;;;1.98;;
60999;SDS011;46879;45.658;11.814;2023-03-12T16:58:09;1.92;;;1.67;;
60999;SDS011;46879;45.658;11.814;2023-03-12T17:03:15;1.70;;;1.60;;
60999;SDS011;46879;45.658;11.814;2023-03-12T17:08:25;5.20;;;2.05;;
60999;SDS011;46879;45.658;11.814;2023-03-12T17:13:27;3.03;;;2.15;;
60999;SDS011;46879;45.658;11.814;2023-03-12T17:18:28;15.73;;;3.10;;
60999;SDS011;46879;45.658;11.814;2023-03-12T17:23:29;11.13;;;3.13;;
60999;SDS011;46879;45.658;11.814;2023-03-12T17:28:29;10.30;;;2.53;;
60999;SDS011;46879;45.658;11.814;2023-03-12T17:33:30;6.18;;;2.70;;
60999;SDS011;46879;45.658;11.814;2023-03-12T17:38:31;10.00;;;2.85;;
60999;SDS011;46879;45.658;11.814;2023-03-12T17:43:33;5.72;;;2.38;;
60999;SDS011;46879;45.658;11.814;2023-03-12T17:48:34;7.25;;;2.40;;
60999;SDS011;46879;45.658;11.814;2023-03-12T17:53:35;8.82;;;2.17;;
60999;SDS011;46879;45.658;11.814;2023-03-12T17:58:38;9.88;;;2.55;;
60999;SDS011;46879;45.658;11.814;2023-03-12T18:03:39;3.25;;;1.85;;
60999;SDS011;46879;45.658;11.814;2023-03-12T18:08:39;9.02;;;2.40;;
60999;SDS011;46879;45.658;11.814;2023-03-12T18:13:40;7.97;;;2.45;;
60999;SDS011;46879;45.658;11.814;2023-03-12T18:18:41;5.90;;;2.45;;
60999;SDS011;46879;45.658;11.814;2023-03-12T18:23:41;5.38;;;2.13;;
60999;SDS011;46879;45.658;11.814;2023-03-12T18:28:42;7.35;;;2.38;;
60999;SDS011;46879;45.658;11.814;2023-03-12T18:33:43;5.07;;;2.20;;
60999;SDS011;46879;45.658;11.814;2023-03-12T18:38:44;5.22;;;2.35;;
60999;SDS011;46879;45.658;11.814;2023-03-12T18:43:45;5.88;;;2.38;;
60999;SDS011;46879;45.658;11.814;2023-03-12T18:48:45;10.32;;;2.30;;
60999;SDS011;46879;45.658;11.814;2023-03-12T18:53:46;5.05;;;2.15;;
60999;SDS011;46879;45.658;11.814;2023-03-12T18:58:47;4.07;;;2.08;;
60999;SDS011;46879;45.658;11.814;2023-03-12T19:03:47;8.38;;;2.28;;
60999;SDS011;46879;45.658;11.814;2023-03-12T19:08:48;6.25;;;2.40;;
60999;SDS011;46879;45.658;11.814;2023-03-12T19:13:49;7.38;;;2.42;;
60999;SDS011;46879;45.658;11.814;2023-03-12T19:18:53;5.63;;;2.28;;
60999;SDS011;46879;45.658;11.814;2023-03-12T19:23:54;2.65;;;2.10;;
60999;SDS011;46879;45.658;11.814;2023-03-12T19:28:55;4.43;;;2.08;;
60999;SDS011;46879;45.658;11.814;2023-03-12T19:33:55;4.70;;;2.22;;
60999;SDS011;46879;45.658;11.814;2023-03-12T19:38:56;4.72;;;2.17;;
60999;SDS011;46879;45.658;11.814;2023-03-12T19:43:56;5.05;;;2.17;;
60999;SDS011;46879;45.658;11.814;2023-03-12T19:48:57;5.28;;;2.28;;
60999;SDS011;46879;45.658;11.814;2023-03-12T19:53:58;8.27;;;2.30;;
60999;SDS011;46879;45.658;11.814;2023-03-12T19:58:58;4.40;;;2.17;;
60999;SDS011;46879;45.658;11.814;2023-03-12T20:03:59;4.45;;;2.08;;
60999;SDS011;46879;45.658;11.814;2023-03-12T20:08:59;4.20;;;2.17;;
60999;SDS011;46879;45.658;11.814;2023-03-12T20:14:01;5.90;;;2.50;;
60999;SDS011;46879;45.658;11.814;2023-03-12T20:19:03;2.58;;;2.10;;
60999;SDS011;46879;45.658;11.814;2023-03-12T20:24:03;3.40;;;2.38;;
60999;SDS011;46879;45.658;11.814;2023-03-12T20:29:04;4.88;;;2.25;;
60999;SDS011;46879;45.658;11.814;2023-03-12T20:34:05;4.30;;;2.38;;
60999;SDS011;46879;45.658;11.814;2023-03-12T20:39:06;5.47;;;2.53;;
60999;SDS011;46879;45.658;11.814;2023-03-12T20:44:07;4.70;;;2.28;;
60999;SDS011;46879;45.658;11.814;2023-03-12T20:49:09;4.80;;;2.10;;
60999;SDS011;46879;45.658;11.814;2023-03-12T20:54:09;3.35;;;2.33;;
60999;SDS011;46879;45.658;11.814;2023-03-12T20:59:10;3.95;;;2.42;;
60999;SDS011;46879;45.658;11.814;2023-03-12T21:04:12;3.42;;;2.33;;
60999;SDS011;46879;45.658;11.814;2023-03-12T21:09:13;3.55;;;2.30;;
60999;SDS011;46879;45.658;11.814;2023-03-12T21:14:14;5.38;;;2.78;;
60999;SDS011;46879;45.658;11.814;2023-03-12T21:19:15;4.43;;;2.40;;
60999;SDS011;46879;45.658;11.814;2023-03-12T21:24:15;3.92;;;2.60;;
60999;SDS011;46879;45.658;11.814;2023-03-12T21:29:16;4.13;;;2.70;;
60999;SDS011;46879;45.658;11.814;2023-03-12T21:34:16;4.57;;;2.60;;
60999;SDS011;46879;45.658;11.814;2023-03-12T21:39:17;4.60;;;3.13;;
60999;SDS011;46879;45.658;11.814;2023-03-12T21:44:17;7.43;;;2.70;;
60999;SDS011;46879;45.658;11.814;2023-03-12T21:49:18;16.55;;;3.05;;
60999;SDS011;46879;45.658;11.814;2023-03-12T21:54:19;11.45;;;3.30;;
60999;SDS011;46879;45.658;11.814;2023-03-12T21:59:19;12.05;;;4.15;;
60999;SDS011;46879;45.658;11.814;2023-03-12T22:04:20;10.98;;;3.53;;
60999;SDS011;46879;45.658;11.814;2023-03-12T22:09:21;6.15;;;2.92;;
60999;SDS011;46879;45.658;11.814;2023-03-12T22:14:22;8.90;;;2.97;;
60999;SDS011;46879;45.658;11.814;2023-03-12T22:19:23;8.98;;;3.00;;
60999;SDS011;46879;45.658;11.814;2023-03-12T22:24:23;5.63;;;2.97;;
60999;SDS011;46879;45.658;11.814;2023-03-12T22:29:24;9.80;;;3.13;;
60999;SDS011;46879;45.658;11.814;2023-03-12T22:34:24;6.00;;;2.75;;
60999;SDS011;46879;45.658;11.814;2023-03-12T22:39:25;12.27;;;3.42;;
60999;SDS011;46879;45.658;11.814;2023-03-12T22:44:26;5.25;;;2.97;;
60999;SDS011;46879;45.658;11.814;2023-03-12T22:49:26;4.88;;;2.97;;
60999;SDS011;46879;45.658;11.814;2023-03-12T22:54:27;11.43;;;3.33;;
60999;SDS011;46879;45.658;11.814;2023-03-12T22:59:27;8.63;;;2.60;;
60999;SDS011;46879;45.658;11.814;2023-03-12T23:04:28;5.80;;;2.85;;
60999;SDS011;46879;45.658;11.814;2023-03-12T23:09:28;5.88;;;2.75;;
60999;SDS011;46879;45.658;11.814;2023-03-12T23:14:29;3.72;;;2.65;;
60999;SDS011;46879;45.658;11.814;2023-03-12T23:19:32;9.90;;;3.20;;
60999;SDS011;46879;45.658;11.814;2023-03-12T23:24:33;4.53;;;2.72;;
60999;SDS011;46879;45.658;11.814;2023-03-12T23:29:34;5.63;;;2.70;;
60999;SDS011;46879;45.658;11.814;2023-03-12T23:34:34;6.90;;;2.42;;
60999;SDS011;46879;45.658;11.814;2023-03-12T23:39:35;3.63;;;2.70;;
60999;SDS011;46879;45.658;11.814;2023-03-12T23:44:36;7.40;;;2.47;;
60999;SDS011;46879;45.658;11.814;2023-03-12T23:49:37;4.00;;;2.75;;
60999;SDS011;46879;45.658;11.814;2023-03-12T23:54:38;4.07;;;2.70;;
60999;SDS011;46879;45.658;11.814;2023-03-12T23:59:38;7.35;;;2.88;;
